sensor_id;sensor_type;location;lat;lon;timestamp;pressure;altitude;pressure_sealevel;temperature;humidity
75650;BME280;64245;51.282;22.494;2024-01-15T00:00:05;97096.94;;;-0.54;100.00
75650;BME280;64245;51.282;22.494;2024-01-15T00:02:32;97097.78;;;-0.54;100.00
75650;BME280;64245;51.282;22.494;2024-01-15T00:04:58;97091.53;;;-0.53;100.00
75650;BME280;64245;51.282;22.494;2024-01-15T00:07:23;97075.94;;;-0.56;100.00
75650;BME280;64245;51.282;22.494;2024-01-15T00:09:49;97073.47;;;-0.48;100.00
75650;BME280;64245;51.282;22.494;2024-01-15T00:12:14;97080.34;;;-0.36;100.00
75650;BME280;64245;51.282;22.494;2024-01-15T00:14:40;97085.75;;;-0.47;100.00
75650;BME280;64245;51.282;22.494;2024-01-15T00:17:06;97077.41;;;-0.42;100.00
75650;BME280;64245;51.282;22.494;2024-01-15T00:19:31;97073.47;;;-0.48;100.00
75650;BME280;64245;51.282;22.494;2024-01-15T00:21:57;97065.09;;;-0.53;100.00
75650;BME280;64245;51.282;22.494;2024-01-15T00:24:24;97066.06;;;-0.54;100.00
75650;BME280;64245;51.282;22.494;2024-01-15T00:26:50;97054.09;;;-0.58;100.00
75650;BME280;64245;51.282;22.494;2024-01-15T00:29:16;97057.41;;;-0.56;100.00
75650;BME280;64245;51.282;22.494;2024-01-15T00:31:42;97042.69;;;-0.58;100.00
75650;BME280;64245;51.282;22.494;2024-01-15T00:34:07;97043.53;;;-0.58;100.00
75650;BME280;64245;51.282;22.494;2024-01-15T00:36:33;97042.72;;;-0.49;100.00
75650;BME280;64245;51.282;22.494;2024-01-15T00:38:59;97035.44;;;-0.56;100.00
75650;BME280;64245;51.282;22.494;2024-01-15T00:41:25;97039.34;;;-0.60;100.00
75650;BME280;64245;51.282;22.494;2024-01-15T00:43:50;97038.91;;;-0.56;100.00
75650;BME280;64245;51.282;22.494;2024-01-15T00:46:16;97025.09;;;-0.69;100.00
75650;BME280;64245;51.282;22.494;2024-01-15T00:48:42;97027.84;;;-0.71;100.00
75650;BME280;64245;51.282;22.494;2024-01-15T00:51:08;97016.81;;;-0.76;100.00
75650;BME280;64245;51.282;22.494;2024-01-15T00:53:34;97026.88;;;-0.70;100.00
75650;BME280;64245;51.282;22.494;2024-01-15T00:56:00;97012.38;;;-0.75;100.00
75650;BME280;64245;51.282;22.494;2024-01-15T00:58:26;97002.28;;;-0.91;100.00
75650;BME280;64245;51.282;22.494;2024-01-15T01:00:52;97010.66;;;-0.86;100.00
75650;BME280;64245;51.282;22.494;2024-01-15T01:03:18;97015.69;;;-0.83;100.00
75650;BME280;64245;51.282;22.494;2024-01-15T01:05:44;97010.34;;;-0.92;100.00
75650;BME280;64245;51.282;22.494;2024-01-15T01:08:10;97015.38;;;-0.89;100.00
75650;BME280;64245;51.282;22.494;2024-01-15T01:10:37;97010.91;;;-0.89;100.00
75650;BME280;64245;51.282;22.494;2024-01-15T01:13:03;97009.63;;;-0.94;100.00
75650;BME280;64245;51.282;22.494;2024-01-15T01:15:28;97001.16;;;-0.98;100.00
75650;BME280;64245;51.282;22.494;2024-01-15T01:17:54;97002.81;;;-0.97;100.00
75650;BME280;64245;51.282;22.494;2024-01-15T01:20:20;97008.78;;;-0.95;100.00
75650;BME280;64245;51.282;22.494;2024-01-15T01:22:46;97005.19;;;-0.94;100.00
75650;BME280;64245;51.282;22.494;2024-01-15T01:25:11;96998.75;;;-1.01;100.00
75650;BME280;64245;51.282;22.494;2024-01-15T01:27:37;96992.63;;;-1.01;100.00
75650;BME280;64245;51.282;22.494;2024-01-15T01:30:03;96980.41;;;-1.02;100.00
75650;BME280;64245;51.282;22.494;2024-01-15T01:32:29;96981.75;;;-1.08;100.00
75650;BME280;64245;51.282;22.494;2024-01-15T01:34:54;96979.44;;;-1.01;100.00
75650;BME280;64245;51.282;22.494;2024-01-15T01:37:20;96975.81;;;-1.00;100.00
75650;BME280;64245;51.282;22.494;2024-01-15T01:39:46;96974.41;;;-1.05;100.00
75650;BME280;64245;51.282;22.494;2024-01-15T01:42:12;96959.19;;;-1.12;100.00
75650;BME280;64245;51.282;22.494;2024-01-15T01:44:37;96951.28;;;-1.12;100.00
75650;BME280;64245;51.282;22.494;2024-01-15T01:47:04;96946.56;;;-1.09;100.00
75650;BME280;64245;51.282;22.494;2024-01-15T01:49:30;96949.53;;;-1.02;100.00
75650;BME280;64245;51.282;22.494;2024-01-15T01:51:57;96935.16;;;-1.09;100.00
75650;BME280;64245;51.282;22.494;2024-01-15T01:54:24;96960.16;;;-0.92;100.00
75650;BME280;64245;51.282;22.494;2024-01-15T01:56:54;96949.44;;;-0.91;100.00
75650;BME280;64245;51.282;22.494;2024-01-15T01:59:21;96929.41;;;-0.93;100.00
75650;BME280;64245;51.282;22.494;2024-01-15T02:01:50;96945.72;;;-0.88;100.00
75650;BME280;64245;51.282;22.494;2024-01-15T02:04:16;96942.22;;;-0.89;100.00
75650;BME280;64245;51.282;22.494;2024-01-15T02:06:42;96933.00;;;-0.94;100.00
75650;BME280;64245;51.282;22.494;2024-01-15T02:09:08;96938.50;;;-0.86;100.00
75650;BME280;64245;51.282;22.494;2024-01-15T02:11:36;96921.09;;;-0.89;100.00
75650;BME280;64245;51.282;22.494;2024-01-15T02:14:02;96934.03;;;-0.86;100.00
75650;BME280;64245;51.282;22.494;2024-01-15T02:16:28;96923.47;;;-0.86;100.00
75650;BME280;64245;51.282;22.494;2024-01-15T02:18:53;96932.69;;;-0.80;100.00
75650;BME280;64245;51.282;22.494;2024-01-15T02:21:19;96929.91;;;-0.79;100.00
75650;BME280;64245;51.282;22.494;2024-01-15T02:23:44;96927.66;;;-0.83;100.00
75650;BME280;64245;51.282;22.494;2024-01-15T02:26:10;96917.16;;;-0.94;100.00
75650;BME280;64245;51.282;22.494;2024-01-15T02:28:36;96913.16;;;-0.89;100.00
75650;BME280;64245;51.282;22.494;2024-01-15T02:31:02;96910.00;;;-0.83;100.00
75650;BME280;64245;51.282;22.494;2024-01-15T02:33:28;96896.47;;;-0.89;100.00
75650;BME280;64245;51.282;22.494;2024-01-15T02:35:54;96896.47;;;-0.89;100.00
75650;BME280;64245;51.282;22.494;2024-01-15T02:38:19;96910.28;;;-0.86;100.00
75650;BME280;64245;51.282;22.494;2024-01-15T02:40:45;96897.91;;;-0.85;100.00
75650;BME280;64245;51.282;22.494;2024-01-15T02:43:11;96902.53;;;-0.78;100.00
75650;BME280;64245;51.282;22.494;2024-01-15T02:45:37;96898.75;;;-0.75;100.00
75650;BME280;64245;51.282;22.494;2024-01-15T02:48:03;96901.41;;;-0.75;100.00
75650;BME280;64245;51.282;22.494;2024-01-15T02:50:29;96889.84;;;-0.74;100.00
75650;BME280;64245;51.282;22.494;2024-01-15T02:52:54;96890.56;;;-0.72;100.00
75650;BME280;64245;51.282;22.494;2024-01-15T02:55:20;96899.56;;;-0.84;100.00
75650;BME280;64245;51.282;22.494;2024-01-15T02:57:45;96882.03;;;-0.85;100.00
75650;BME280;64245;51.282;22.494;2024-01-15T03:00:12;96886.50;;;-0.86;100.00
75650;BME280;64245;51.282;22.494;2024-01-15T03:02:38;96879.66;;;-0.88;100.00
75650;BME280;64245;51.282;22.494;2024-01-15T03:05:09;96876.06;;;-0.87;100.00
75650;BME280;64245;51.282;22.494;2024-01-15T03:07:35;96875.66;;;-0.83;100.00
75650;BME280;64245;51.282;22.494;2024-01-15T03:10:01;96870.63;;;-0.86;100.00
75650;BME280;64245;51.282;22.494;2024-01-15T03:12:27;96870.44;;;-0.94;100.00
75650;BME280;64245;51.282;22.494;2024-01-15T03:14:53;96882.44;;;-0.90;100.00
75650;BME280;64245;51.282;22.494;2024-01-15T03:17:18;96869.66;;;-0.85;100.00
75650;BME280;64245;51.282;22.494;2024-01-15T03:19:44;96866.31;;;-0.87;100.00
75650;BME280;64245;51.282;22.494;2024-01-15T03:22:10;96866.31;;;-0.96;100.00
75650;BME280;64245;51.282;22.494;2024-01-15T03:24:35;96858.75;;;-1.01;100.00
75650;BME280;64245;51.282;22.494;2024-01-15T03:27:02;96853.28;;;-1.09;100.00
75650;BME280;64245;51.282;22.494;2024-01-15T03:29:28;96856.31;;;-1.14;100.00
75650;BME280;64245;51.282;22.494;2024-01-15T03:31:53;96862.50;;;-1.03;100.00
75650;BME280;64245;51.282;22.494;2024-01-15T03:34:19;96852.78;;;-1.03;100.00
75650;BME280;64245;51.282;22.494;2024-01-15T03:36:45;96861.00;;;-0.96;100.00
75650;BME280;64245;51.282;22.494;2024-01-15T03:39:11;96858.41;;;-0.87;100.00
75650;BME280;64245;51.282;22.494;2024-01-15T03:41:36;96853.38;;;-0.90;100.00
75650;BME280;64245;51.282;22.494;2024-01-15T03:44:02;96837.97;;;-0.85;100.00
75650;BME280;64245;51.282;22.494;2024-01-15T03:46:28;96842.59;;;-0.77;100.00
75650;BME280;64245;51.282;22.494;2024-01-15T03:48:54;96838.09;;;-0.77;100.00
75650;BME280;64245;51.282;22.494;2024-01-15T03:51:20;96826.75;;;-0.77;100.00
75650;BME280;64245;51.282;22.494;2024-01-15T03:53:46;96825.41;;;-0.92;100.00
75650;BME280;64245;51.282;22.494;2024-01-15T03:56:11;96819.34;;;-0.83;100.00
75650;BME280;64245;51.282;22.494;2024-01-15T03:58:37;96818.31;;;-0.92;100.00
75650;BME280;64245;51.282;22.494;2024-01-15T04:01:03;96811.38;;;-0.93;100.00
75650;BME280;64245;51.282;22.494;2024-01-15T04:03:29;96822.97;;;-0.75;100.00
75650;BME280;64245;51.282;22.494;2024-01-15T04:05:54;96801.69;;;-0.83;100.00
75650;BME280;64245;51.282;22.494;2024-01-15T04:08:20;96800.44;;;-0.79;100.00
75650;BME280;64245;51.282;22.494;2024-01-15T04:10:46;96801.13;;;-0.77;100.00
75650;BME280;64245;51.282;22.494;2024-01-15T04:13:11;96797.50;;;-0.76;100.00
75650;BME280;64245;51.282;22.494;2024-01-15T04:15:37;96799.03;;;-0.73;100.00
75650;BME280;64245;51.282;22.494;2024-01-15T04:18:03;96787.91;;;-0.77;100.00
75650;BME280;64245;51.282;22.494;2024-01-15T04:20:29;96789.75;;;-0.77;100.00
75650;BME280;64245;51.282;22.494;2024-01-15T04:22:55;96773.19;;;-0.79;100.00
75650;BME280;64245;51.282;22.494;2024-01-15T04:25:20;96776.94;;;-0.82;100.00
75650;BME280;64245;51.282;22.494;2024-01-15T04:27:46;96781.69;;;-0.66;100.00
75650;BME280;64245;51.282;22.494;2024-01-15T04:30:12;96789.47;;;-0.64;100.00
75650;BME280;64245;51.282;22.494;2024-01-15T04:32:38;96784.72;;;-0.71;100.00
75650;BME280;64245;51.282;22.494;2024-01-15T04:35:03;96770.41;;;-0.78;100.00
75650;BME280;64245;51.282;22.494;2024-01-15T04:37:29;96765.66;;;-0.74;100.00
75650;BME280;64245;51.282;22.494;2024-01-15T04:39:55;96769.84;;;-0.72;100.00
75650;BME280;64245;51.282;22.494;2024-01-15T04:42:23;96765.25;;;-0.70;100.00
75650;BME280;64245;51.282;22.494;2024-01-15T04:44:51;96754.56;;;-0.68;100.00
75650;BME280;64245;51.282;22.494;2024-01-15T04:47:17;96756.06;;;-0.75;100.00
75650;BME280;64245;51.282;22.494;2024-01-15T04:49:43;96758.75;;;-0.65;100.00
75650;BME280;64245;51.282;22.494;2024-01-15T04:52:08;96750.78;;;-0.75;100.00
75650;BME280;64245;51.282;22.494;2024-01-15T04:54:36;96758.44;;;-0.72;100.00
75650;BME280;64245;51.282;22.494;2024-01-15T04:57:02;96761.38;;;-0.65;100.00
75650;BME280;64245;51.282;22.494;2024-01-15T04:59:28;96742.84;;;-0.75;100.00
75650;BME280;64245;51.282;22.494;2024-01-15T05:01:54;96753.41;;;-0.75;100.00
75650;BME280;64245;51.282;22.494;2024-01-15T05:04:20;96755.41;;;-0.77;100.00
75650;BME280;64245;51.282;22.494;2024-01-15T05:06:46;96755.78;;;-0.82;100.00
75650;BME280;64245;51.282;22.494;2024-01-15T05:09:11;96756.47;;;-0.89;100.00
75650;BME280;64245;51.282;22.494;2024-01-15T05:11:39;96751.44;;;-1.02;100.00
75650;BME280;64245;51.282;22.494;2024-01-15T05:14:05;96744.56;;;-1.14;100.00
75650;BME280;64245;51.282;22.494;2024-01-15T05:16:31;96732.34;;;-1.25;100.00
75650;BME280;64245;51.282;22.494;2024-01-15T05:18:56;96731.19;;;-1.32;100.00
75650;BME280;64245;51.282;22.494;2024-01-15T05:21:22;96730.66;;;-1.26;100.00
75650;BME280;64245;51.282;22.494;2024-01-15T05:23:47;96735.81;;;-1.24;100.00
75650;BME280;64245;51.282;22.494;2024-01-15T05:26:13;96722.59;;;-1.24;100.00
75650;BME280;64245;51.282;22.494;2024-01-15T05:28:41;96730.00;;;-1.18;100.00
75650;BME280;64245;51.282;22.494;2024-01-15T05:31:08;96724.28;;;-1.23;100.00
75650;BME280;64245;51.282;22.494;2024-01-15T05:33:34;96712.75;;;-1.22;100.00
75650;BME280;64245;51.282;22.494;2024-01-15T05:36:00;96717.50;;;-1.07;100.00
75650;BME280;64245;51.282;22.494;2024-01-15T05:38:26;96713.75;;;-1.04;100.00
75650;BME280;64245;51.282;22.494;2024-01-15T05:40:51;96729.34;;;-1.01;100.00
75650;BME280;64245;51.282;22.494;2024-01-15T05:43:17;96724.19;;;-1.02;100.00
75650;BME280;64245;51.282;22.494;2024-01-15T05:45:43;96716.28;;;-0.93;100.00
75650;BME280;64245;51.282;22.494;2024-01-15T05:48:10;96721.84;;;-0.86;100.00
75650;BME280;64245;51.282;22.494;2024-01-15T05:50:36;96715.31;;;-0.82;100.00
75650;BME280;64245;51.282;22.494;2024-01-15T05:53:01;96699.44;;;-0.92;100.00
75650;BME280;64245;51.282;22.494;2024-01-15T05:55:28;96709.63;;;-0.87;100.00
75650;BME280;64245;51.282;22.494;2024-01-15T05:57:53;96680.56;;;-0.87;100.00
75650;BME280;64245;51.282;22.494;2024-01-15T06:00:19;96703.78;;;-0.81;100.00
75650;BME280;64245;51.282;22.494;2024-01-15T06:02:45;96703.22;;;-0.85;100.00
75650;BME280;64245;51.282;22.494;2024-01-15T06:05:11;96697.66;;;-0.82;100.00
75650;BME280;64245;51.282;22.494;2024-01-15T06:07:36;96693.91;;;-0.79;100.00
75650;BME280;64245;51.282;22.494;2024-01-15T06:10:03;96691.69;;;-0.74;100.00
75650;BME280;64245;51.282;22.494;2024-01-15T06:12:30;96680.28;;;-0.84;100.00
75650;BME280;64245;51.282;22.494;2024-01-15T06:14:56;96676.66;;;-0.83;100.00
75650;BME280;64245;51.282;22.494;2024-01-15T06:17:22;96687.94;;;-0.81;100.00
75650;BME280;64245;51.282;22.494;2024-01-15T06:19:50;96677.63;;;-0.84;100.00
75650;BME280;64245;51.282;22.494;2024-01-15T06:22:15;96654.69;;;-0.93;100.00
75650;BME280;64245;51.282;22.494;2024-01-15T06:24:41;96634.81;;;-1.07;100.00
75650;BME280;64245;51.282;22.494;2024-01-15T06:27:07;96655.66;;;-0.94;100.00
75650;BME280;64245;51.282;22.494;2024-01-15T06:29:32;96671.09;;;-0.90;100.00
75650;BME280;64245;51.282;22.494;2024-01-15T06:31:58;96674.00;;;-0.93;100.00
75650;BME280;64245;51.282;22.494;2024-01-15T06:34:24;96669.28;;;-0.89;100.00
75650;BME280;64245;51.282;22.494;2024-01-15T06:36:49;96671.50;;;-0.94;100.00
75650;BME280;64245;51.282;22.494;2024-01-15T06:39:15;96673.31;;;-0.95;100.00
75650;BME280;64245;51.282;22.494;2024-01-15T06:41:40;96689.31;;;-0.87;100.00
75650;BME280;64245;51.282;22.494;2024-01-15T06:44:10;96668.03;;;-0.85;100.00
75650;BME280;64245;51.282;22.494;2024-01-15T06:46:36;96653.72;;;-0.92;100.00
75650;BME280;64245;51.282;22.494;2024-01-15T06:49:02;96684.31;;;-0.80;100.00
75650;BME280;64245;51.282;22.494;2024-01-15T06:51:29;96669.84;;;-0.86;100.00
75650;BME280;64245;51.282;22.494;2024-01-15T06:53:55;96668.03;;;-0.95;100.00
75650;BME280;64245;51.282;22.494;2024-01-15T06:56:20;96678.47;;;-0.84;100.00
75650;BME280;64245;51.282;22.494;2024-01-15T06:58:46;96665.69;;;-0.79;100.00
75650;BME280;64245;51.282;22.494;2024-01-15T07:01:12;96690.69;;;-0.73;100.00
75650;BME280;64245;51.282;22.494;2024-01-15T07:03:38;96692.38;;;-0.72;100.00
75650;BME280;64245;51.282;22.494;2024-01-15T07:06:03;96692.09;;;-0.69;100.00
75650;BME280;64245;51.282;22.494;2024-01-15T07:08:29;96691.41;;;-0.71;100.00
75650;BME280;64245;51.282;22.494;2024-01-15T07:10:55;96690.00;;;-0.75;100.00
75650;BME280;64245;51.282;22.494;2024-01-15T07:13:21;96690.69;;;-0.73;100.00
75650;BME280;64245;51.282;22.494;2024-01-15T07:15:46;96671.94;;;-0.80;100.00
75650;BME280;64245;51.282;22.494;2024-01-15T07:18:12;96690.69;;;-0.73;100.00
75650;BME280;64245;51.282;22.494;2024-01-15T07:20:38;96683.91;;;-0.66;100.00
75650;BME280;64245;51.282;22.494;2024-01-15T07:23:04;96689.16;;;-0.56;100.00
75650;BME280;64245;51.282;22.494;2024-01-15T07:25:29;96681.25;;;-0.66;100.00
75650;BME280;64245;51.282;22.494;2024-01-15T07:27:55;96675.44;;;-0.60;100.00
75650;BME280;64245;51.282;22.494;2024-01-15T07:30:21;96690.84;;;-0.55;100.00
75650;BME280;64245;51.282;22.494;2024-01-15T07:32:47;96702.94;;;-0.53;100.00
75650;BME280;64245;51.282;22.494;2024-01-15T07:35:14;96698.91;;;-0.47;100.00
75650;BME280;64245;51.282;22.494;2024-01-15T07:37:41;96683.22;;;-0.58;100.00
75650;BME280;64245;51.282;22.494;2024-01-15T07:40:07;96685.88;;;-0.58;100.00
75650;BME280;64245;51.282;22.494;2024-01-15T07:42:34;96692.09;;;-0.50;100.00
75650;BME280;64245;51.282;22.494;2024-01-15T07:45:01;96684.72;;;-0.56;100.00
75650;BME280;64245;51.282;22.494;2024-01-15T07:47:27;96682.66;;;-0.62;100.00
75650;BME280;64245;51.282;22.494;2024-01-15T07:49:53;96686.84;;;-0.59;100.00
75650;BME280;64245;51.282;22.494;2024-01-15T07:52:19;96697.28;;;-0.58;100.00
75650;BME280;64245;51.282;22.494;2024-01-15T07:54:45;96699.34;;;-0.61;100.00
75650;BME280;64245;51.282;22.494;2024-01-15T07:57:11;96686.69;;;-0.96;100.00
75650;BME280;64245;51.282;22.494;2024-01-15T07:59:39;96696.81;;;-1.01;100.00
75650;BME280;64245;51.282;22.494;2024-01-15T08:02:05;96708.09;;;-0.99;100.00
75650;BME280;64245;51.282;22.494;2024-01-15T08:04:31;96711.81;;;-0.92;100.00
75650;BME280;64245;51.282;22.494;2024-01-15T08:06:57;96677.06;;;-1.17;100.00
75650;BME280;64245;51.282;22.494;2024-01-15T08:09:23;96701.38;;;-1.03;100.00
75650;BME280;64245;51.282;22.494;2024-01-15T08:11:49;96703.06;;;-1.02;100.00
75650;BME280;64245;51.282;22.494;2024-01-15T08:14:15;96697.78;;;-0.93;100.00
75650;BME280;64245;51.282;22.494;2024-01-15T08:16:40;96705.16;;;-0.96;100.00
75650;BME280;64245;51.282;22.494;2024-01-15T08:19:06;96678.44;;;-1.13;100.00
75650;BME280;64245;51.282;22.494;2024-01-15T08:21:32;96695.97;;;-1.02;100.00
75650;BME280;64245;51.282;22.494;2024-01-15T08:24:02;96679.97;;;-1.10;100.00
75650;BME280;64245;51.282;22.494;2024-01-15T08:26:29;96692.78;;;-1.06;100.00
75650;BME280;64245;51.282;22.494;2024-01-15T08:28:54;96682.06;;;-1.04;100.00
75650;BME280;64245;51.282;22.494;2024-01-15T08:31:20;96692.63;;;-0.94;100.00
75650;BME280;64245;51.282;22.494;2024-01-15T08:33:46;96683.59;;;-0.92;100.00
75650;BME280;64245;51.282;22.494;2024-01-15T08:36:12;96692.66;;;-0.75;100.00
75650;BME280;64245;51.282;22.494;2024-01-15T08:38:37;96685.16;;;-0.70;100.00
75650;BME280;64245;51.282;22.494;2024-01-15T08:41:03;96686.69;;;-0.77;100.00
75650;BME280;64245;51.282;22.494;2024-01-15T08:43:29;96682.22;;;-0.57;100.00
75650;BME280;64245;51.282;22.494;2024-01-15T08:45:56;96679.16;;;-0.53;100.00
75650;BME280;64245;51.282;22.494;2024-01-15T08:48:22;96683.88;;;-0.37;100.00
75650;BME280;64245;51.282;22.494;2024-01-15T08:50:48;96669.56;;;-0.44;100.00
75650;BME280;64245;51.282;22.494;2024-01-15T08:53:14;96683.34;;;-0.41;100.00
75650;BME280;64245;51.282;22.494;2024-01-15T08:55:40;96688.31;;;-0.38;100.00
75650;BME280;64245;51.282;22.494;2024-01-15T08:58:08;96684.19;;;-0.40;100.00
75650;BME280;64245;51.282;22.494;2024-01-15T09:00:34;96688.47;;;-0.20;100.00
75650;BME280;64245;51.282;22.494;2024-01-15T09:03:00;96674.13;;;-0.27;100.00
75650;BME280;64245;51.282;22.494;2024-01-15T09:05:26;96691.63;;;-0.16;100.00
75650;BME280;64245;51.282;22.494;2024-01-15T09:07:51;96672.03;;;-0.33;100.00
75650;BME280;64245;51.282;22.494;2024-01-15T09:10:18;96689.31;;;-0.29;100.00
75650;BME280;64245;51.282;22.494;2024-01-15T09:12:44;96695.44;;;-0.28;100.00
75650;BME280;64245;51.282;22.494;2024-01-15T09:15:10;96700.69;;;-0.19;100.00
75650;BME280;64245;51.282;22.494;2024-01-15T09:17:36;96703.63;;;-0.22;100.00
75650;BME280;64245;51.282;22.494;2024-01-15T09:20:02;96684.84;;;-0.28;100.00
75650;BME280;64245;51.282;22.494;2024-01-15T09:22:30;96689.31;;;-0.39;100.00
75650;BME280;64245;51.282;22.494;2024-01-15T09:24:55;96681.94;;;-0.35;100.00
75650;BME280;64245;51.282;22.494;2024-01-15T09:27:21;96675.81;;;-0.26;100.00
75650;BME280;64245;51.282;22.494;2024-01-15T09:29:49;96678.56;;;-0.18;100.00
75650;BME280;64245;51.282;22.494;2024-01-15T09:32:15;96675.63;;;-0.05;100.00
75650;BME280;64245;51.282;22.494;2024-01-15T09:34:41;96677.44;;;-0.06;100.00
75650;BME280;64245;51.282;22.494;2024-01-15T09:37:07;96667.28;;;-0.10;100.00
75650;BME280;64245;51.282;22.494;2024-01-15T09:39:33;96666.25;;;0.00;100.00
75650;BME280;64245;51.282;22.494;2024-01-15T09:41:59;96650.56;;;-0.11;100.00
75650;BME280;64245;51.282;22.494;2024-01-15T09:44:25;96665.47;;;-0.10;100.00
75650;BME280;64245;51.282;22.494;2024-01-15T09:46:53;96678.78;;;0.08;100.00
75650;BME280;64245;51.282;22.494;2024-01-15T09:49:20;96655.00;;;-0.02;100.00
75650;BME280;64245;51.282;22.494;2024-01-15T09:51:47;96653.44;;;0.06;100.00
75650;BME280;64245;51.282;22.494;2024-01-15T09:54:13;96666.72;;;-0.04;100.00
75650;BME280;64245;51.282;22.494;2024-01-15T09:56:45;96651.38;;;-0.01;100.00
75650;BME280;64245;51.282;22.494;2024-01-15T09:59:11;96654.00;;;0.09;100.00
75650;BME280;64245;51.282;22.494;2024-01-15T10:01:40;96649.25;;;0.03;100.00
75650;BME280;64245;51.282;22.494;2024-01-15T10:04:06;96652.09;;;-0.08;100.00
75650;BME280;64245;51.282;22.494;2024-01-15T10:06:32;96640.56;;;-0.17;100.00
75650;BME280;64245;51.282;22.494;2024-01-15T10:08:58;96651.13;;;-0.07;100.00
75650;BME280;64245;51.282;22.494;2024-01-15T10:11:24;96640.81;;;-0.10;100.00
75650;BME280;64245;51.282;22.494;2024-01-15T10:13:50;96654.47;;;-0.05;100.00
75650;BME280;64245;51.282;22.494;2024-01-15T10:16:21;96662.63;;;0.11;100.00
75650;BME280;64245;51.282;22.494;2024-01-15T10:18:48;96678.63;;;0.10;100.00
75650;BME280;64245;51.282;22.494;2024-01-15T10:21:14;96677.72;;;0.38;100.00
75650;BME280;64245;51.282;22.494;2024-01-15T10:23:41;96650.44;;;0.28;100.00
75650;BME280;64245;51.282;22.494;2024-01-15T10:26:06;96668.19;;;0.45;100.00
75650;BME280;64245;51.282;22.494;2024-01-15T10:28:33;96652.50;;;0.34;100.00
75650;BME280;64245;51.282;22.494;2024-01-15T10:30:59;96654.38;;;0.51;100.00
75650;BME280;64245;51.282;22.494;2024-01-15T10:33:25;96665.69;;;0.44;100.00
75650;BME280;64245;51.282;22.494;2024-01-15T10:35:55;96663.69;;;0.55;100.00
75650;BME280;64245;51.282;22.494;2024-01-15T10:38:22;96664.22;;;0.59;100.00
75650;BME280;64245;51.282;22.494;2024-01-15T10:40:55;96666.22;;;0.57;100.00
75650;BME280;64245;51.282;22.494;2024-01-15T10:43:22;96667.47;;;0.53;100.00
75650;BME280;64245;51.282;22.494;2024-01-15T10:45:49;96679.34;;;0.49;100.00
75650;BME280;64245;51.282;22.494;2024-01-15T10:48:17;96674.59;;;0.52;100.00
75650;BME280;64245;51.282;22.494;2024-01-15T10:50:44;96666.22;;;0.47;100.00
75650;BME280;64245;51.282;22.494;2024-01-15T10:53:11;96681.16;;;0.48;100.00
75650;BME280;64245;51.282;22.494;2024-01-15T10:55:38;96682.31;;;0.36;100.00
75650;BME280;64245;51.282;22.494;2024-01-15T10:58:05;96663.09;;;0.34;100.00
75650;BME280;64245;51.282;22.494;2024-01-15T11:00:34;96662.97;;;0.26;100.00
75650;BME280;64245;51.282;22.494;2024-01-15T11:03:01;96671.03;;;0.34;100.00
75650;BME280;64245;51.282;22.494;2024-01-15T11:05:27;96670.66;;;0.19;100.00
75650;BME280;64245;51.282;22.494;2024-01-15T11:07:58;96667.78;;;0.13;100.00
75650;BME280;64245;51.282;22.494;2024-01-15T11:10:45;96659.97;;;0.11;100.00
75650;BME280;64245;51.282;22.494;2024-01-15T11:13:22;96659.13;;;0.11;100.00
75650;BME280;64245;51.282;22.494;2024-01-15T11:15:58;96670.81;;;0.18;100.00
75650;BME280;64245;51.282;22.494;2024-01-15T11:18:29;96668.88;;;0.10;100.00
75650;BME280;64245;51.282;22.494;2024-01-15T11:23:46;96660.63;;;0.23;100.00
75650;BME280;64245;51.282;22.494;2024-01-15T11:28:56;96670.13;;;0.16;100.00
75650;BME280;64245;51.282;22.494;2024-01-15T11:31:29;96675.16;;;0.19;100.00
75650;BME280;64245;51.282;22.494;2024-01-15T11:33:55;96664.09;;;0.23;100.00
75650;BME280;64245;51.282;22.494;2024-01-15T11:36:46;96662.13;;;0.35;100.00
75650;BME280;64245;51.282;22.494;2024-01-15T11:39:39;96660.50;;;0.52;100.00
75650;BME280;64245;51.282;22.494;2024-01-15T11:42:04;96664.72;;;0.45;100.00
75650;BME280;64245;51.282;22.494;2024-01-15T11:44:30;96649.19;;;0.32;100.00
75650;BME280;64245;51.282;22.494;2024-01-15T11:52:11;96651.41;;;0.27;100.00
75650;BME280;64245;51.282;22.494;2024-01-15T11:54:38;96651.38;;;0.37;100.00
75650;BME280;64245;51.282;22.494;2024-01-15T11:57:10;96646.19;;;0.45;100.00
75650;BME280;64245;51.282;22.494;2024-01-15T11:59:39;96650.84;;;0.60;100.00
75650;BME280;64245;51.282;22.494;2024-01-15T12:02:06;96649.78;;;0.53;100.00
75650;BME280;64245;51.282;22.494;2024-01-15T12:04:32;96643.44;;;0.64;100.00
75650;BME280;64245;51.282;22.494;2024-01-15T12:06:58;96650.09;;;0.68;100.00
75650;BME280;64245;51.282;22.494;2024-01-15T12:09:24;96649.66;;;0.73;100.00
75650;BME280;64245;51.282;22.494;2024-01-15T12:12:04;96657.34;;;0.93;100.00
75650;BME280;64245;51.282;22.494;2024-01-15T12:14:33;96628.78;;;0.69;100.00
75650;BME280;64245;51.282;22.494;2024-01-15T12:17:00;96639.97;;;0.81;100.00
75650;BME280;64245;51.282;22.494;2024-01-15T12:19:26;96647.84;;;0.73;100.00
75650;BME280;64245;51.282;22.494;2024-01-15T12:21:51;96649.16;;;0.87;100.00
75650;BME280;64245;51.282;22.494;2024-01-15T12:24:17;96642.63;;;0.81;100.00
75650;BME280;64245;51.282;22.494;2024-01-15T12:26:44;96647.59;;;0.94;100.00
75650;BME280;64245;51.282;22.494;2024-01-15T12:29:11;96631.97;;;0.73;100.00
75650;BME280;64245;51.282;22.494;2024-01-15T12:31:37;96638.69;;;0.67;100.00
75650;BME280;64245;51.282;22.494;2024-01-15T12:34:02;96640.19;;;0.70;100.00
75650;BME280;64245;51.282;22.494;2024-01-15T12:36:31;96637.72;;;0.59;100.00
75650;BME280;64245;51.282;22.494;2024-01-15T12:39:00;96642.38;;;0.57;100.00
75650;BME280;64245;51.282;22.494;2024-01-15T12:41:26;96633.97;;;0.34;100.00
75650;BME280;64245;51.282;22.494;2024-01-15T12:43:52;96638.19;;;0.27;100.00
75650;BME280;64245;51.282;22.494;2024-01-15T12:46:17;96638.31;;;0.25;100.00
75650;BME280;64245;51.282;22.494;2024-01-15T12:48:44;96635.63;;;0.08;100.00